Dades meteomassalio
Diari Summary for Marc 18, 2017 Units:  Metric    English   Both
« Previous Day
Next Day »
Diari Semanal Mensual Anual Personalitzat
  Maxima: Minima: Mijana:
Temperatura: 22.3 °C 2.2 °C 11.9 °C
Rosada: 9.4 °C 0.6 °C 5.5 °C
Humitat: 91 % 39 % 68 %
Velocitat del vent: 18.5 km/h 0.0 km/h 3.1 km/h
Racha vent: 18.5 km/h - -
Vent:- - WNW
Pressio: 1024.9 hPa 1018.5 hPa -
Pluja: 0.0 mm    
Historical Graphs
 
 
Tabular Data for Marc 18, 2017
Time Temperature Dew Point Pressure Wind Wind Speed Wind Gust Humidity Rainfall Rate (Hourly) solar Conditions
00:03 5.6 °C 2.8 °C 1022.9 hPa Calm     82 % 0.0 mm 0.0 W/m2 CLR
00:08 5.6 °C 2.9 °C 1022.9 hPa Calm     83 % 0.0 mm 0.0 W/m2 CLR
00:13 5.6 °C 2.9 °C 1022.6 hPa Calm     83 % 0.0 mm 0.0 W/m2 CLR
00:18 5.5 °C 2.8 °C 1022.6 hPa Calm     83 % 0.0 mm 0.0 W/m2 CLR
00:23 5.4 °C 2.9 °C 1022.6 hPa Calm     84 % 0.0 mm 0.0 W/m2 CLR
00:28 5.7 °C 3.1 °C 1022.9 hPa Calm     83 % 0.0 mm 0.0 W/m2 CLR
00:33 5.5 °C 2.7 °C 1022.6 hPa Calm     82 % 0.0 mm 0.0 W/m2 CLR
00:38 5.2 °C 2.6 °C 1022.6 hPa Calm     83 % 0.0 mm 0.0 W/m2 CLR
00:43 5.1 °C 2.6 °C 1022.6 hPa Calm     84 % 0.0 mm 0.0 W/m2 CLR
00:48 5.0 °C 2.5 °C 1022.9 hPa Calm     84 % 0.0 mm 0.0 W/m2 CLR
00:53 4.9 °C 2.4 °C 1022.9 hPa Calm     84 % 0.0 mm 0.0 W/m2 CLR
00:58 5.0 °C 2.5 °C 1022.9 hPa Calm     84 % 0.0 mm 0.0 W/m2 CLR
01:03 5.0 °C 2.5 °C 1022.9 hPa Calm     84 % 0.0 mm 0.0 W/m2 CLR
01:08 5.0 °C 2.5 °C 1022.9 hPa Calm     84 % 0.0 mm 0.0 W/m2 CLR
01:13 5.0 °C 2.5 °C 1022.9 hPa Calm     84 % 0.0 mm 0.0 W/m2 CLR
01:18 5.0 °C 2.5 °C 1022.9 hPa Calm     84 % 0.0 mm 0.0 W/m2 CLR
01:23 5.2 °C 2.7 °C 1022.9 hPa Calm     84 % 0.0 mm 0.0 W/m2 CLR
01:28 5.4 °C 2.6 °C 1022.9 hPa Calm     82 % 0.0 mm 0.0 W/m2 CLR
01:33 5.2 °C 2.4 °C 1022.9 hPa Calm     82 % 0.0 mm 0.0 W/m2 CLR
01:38 4.9 °C 2.1 °C 1022.9 hPa Calm     82 % 0.0 mm 0.0 W/m2 CLR
01:43 4.7 °C 2.1 °C 1022.9 hPa Calm     83 % 0.0 mm 0.0 W/m2 CLR
01:48 4.6 °C 2.1 °C 1022.9 hPa Calm     84 % 0.0 mm 0.0 W/m2 CLR
01:53 4.7 °C 2.2 °C 1022.9 hPa Calm     84 % 0.0 mm 0.0 W/m2 CLR
01:54 4.7 °C 2.2 °C 1022.9 hPa Calm     84 % 0.0 mm 0.0 W/m2 CLR
01:59 4.6 °C 2.1 °C 1022.9 hPa Calm     84 % 0.0 mm 0.0 W/m2 CLR
02:04 4.4 °C 2.0 °C 1023.2 hPa Calm     84 % 0.0 mm 0.0 W/m2 CLR
02:09 4.3 °C 1.9 °C 1022.9 hPa Calm     84 % 0.0 mm 0.0 W/m2 CLR
02:14 4.3 °C 2.0 °C 1023.2 hPa Calm     85 % 0.0 mm 0.0 W/m2 CLR
02:19 4.2 °C 1.9 °C 1023.2 hPa Calm     85 % 0.0 mm 0.0 W/m2 CLR
02:24 4.0 °C 1.9 °C 1023.2 hPa Calm     86 % 0.0 mm 0.0 W/m2 CLR
02:29 3.9 °C 1.8 °C 1023.2 hPa Calm     86 % 0.0 mm 0.0 W/m2 CLR
02:34 4.0 °C 2.1 °C 1023.2 hPa Calm     87 % 0.0 mm 0.0 W/m2 CLR
02:39 4.1 °C 1.9 °C 1023.2 hPa Calm     86 % 0.0 mm 0.0 W/m2 CLR
02:44 3.9 °C 1.8 °C 1023.2 hPa Calm     86 % 0.0 mm 0.0 W/m2 CLR
02:49 3.9 °C 1.8 °C 1023.2 hPa Calm     86 % 0.0 mm 0.0 W/m2 CLR
02:54 3.8 °C 1.7 °C 1023.2 hPa Calm     86 % 0.0 mm 0.0 W/m2 CLR
02:59 3.7 °C 1.6 °C 1023.2 hPa Calm     86 % 0.0 mm 0.0 W/m2 CLR
03:04 3.6 °C 1.7 °C 1023.2 hPa Calm     87 % 0.0 mm 0.0 W/m2 CLR
03:09 3.6 °C 1.6 °C 1023.2 hPa Calm     87 % 0.0 mm 0.0 W/m2 CLR
03:14 3.5 °C 1.6 °C 1023.2 hPa Calm     87 % 0.0 mm 0.0 W/m2 CLR
03:19 3.5 °C 1.7 °C 1023.2 hPa Calm     88 % 0.0 mm 0.0 W/m2 CLR
03:24 3.4 °C 1.7 °C 1023.2 hPa Calm     88 % 0.0 mm 0.0 W/m2 CLR
03:29 3.4 °C 1.7 °C 1023.2 hPa Calm     88 % 0.0 mm 0.0 W/m2 CLR
03:34 3.3 °C 1.6 °C 1023.2 hPa Calm     88 % 0.0 mm 0.0 W/m2 CLR
03:39 3.3 °C 1.5 °C 1023.2 hPa Calm     88 % 0.0 mm 0.0 W/m2 CLR
03:44 3.2 °C 1.4 °C 1023.2 hPa Calm     88 % 0.0 mm 0.0 W/m2 CLR
03:49 3.2 °C 1.4 °C 1022.9 hPa Calm     88 % 0.0 mm 0.0 W/m2 CLR
03:54 3.2 °C 1.4 °C 1022.9 hPa Calm     88 % 0.0 mm 0.0 W/m2 CLR
03:59 3.1 °C 1.3 °C 1022.9 hPa Calm     88 % 0.0 mm 0.0 W/m2 CLR
04:04 2.9 °C 1.2 °C 1022.9 hPa Calm     88 % 0.0 mm 0.0 W/m2 CLR
04:09 2.8 °C 1.1 °C 1022.9 hPa Calm     88 % 0.0 mm 0.0 W/m2 CLR
04:14 2.8 °C 1.2 °C 1022.6 hPa Calm     89 % 0.0 mm 0.0 W/m2 CLR
04:19 3.0 °C 1.4 °C 1022.9 hPa Calm     89 % 0.0 mm 0.0 W/m2 CLR
04:24 3.0 °C 1.4 °C 1022.9 hPa Calm     89 % 0.0 mm 0.0 W/m2 CLR
04:29 3.0 °C 1.4 °C 1022.9 hPa Calm     89 % 0.0 mm 0.0 W/m2 CLR
04:34 2.9 °C 1.3 °C 1022.9 hPa Calm     89 % 0.0 mm 0.0 W/m2 CLR
04:40 2.9 °C 1.3 °C 1022.9 hPa Calm     89 % 0.0 mm 0.0 W/m2 CLR
04:45 3.0 °C 1.4 °C 1022.9 hPa Calm     89 % 0.0 mm 0.0 W/m2 CLR
04:50 3.1 °C 1.5 °C 1022.9 hPa Calm     89 % 0.0 mm 0.0 W/m2 CLR
04:55 3.2 °C 1.6 °C 1022.9 hPa Calm     89 % 0.0 mm 0.0 W/m2 CLR
05:00 3.1 °C 1.3 °C 1022.9 hPa Calm     88 % 0.0 mm 0.0 W/m2 CLR
05:05 3.0 °C 1.4 °C 1022.9 hPa Calm     89 % 0.0 mm 0.0 W/m2 CLR
05:10 3.1 °C 1.4 °C 1022.9 hPa Calm     89 % 0.0 mm 0.0 W/m2 CLR
05:15 3.1 °C 1.5 °C 1022.9 hPa Calm     89 % 0.0 mm 0.0 W/m2 CLR
05:21 3.2 °C 1.6 °C 1022.9 hPa Calm     89 % 0.0 mm 0.0 W/m2 CLR
05:26 3.1 °C 1.3 °C 1022.9 hPa Calm     88 % 0.0 mm 0.0 W/m2 CLR
05:31 3.0 °C 1.4 °C 1023.2 hPa Calm     89 % 0.0 mm 0.0 W/m2 CLR
05:36 2.9 °C 1.3 °C 1023.2 hPa Calm     89 % 0.0 mm 0.0 W/m2 CLR
05:41 2.8 °C 1.2 °C 1023.2 hPa Calm     89 % 0.0 mm 0.0 W/m2 CLR
05:46 2.7 °C 1.1 °C 1023.2 hPa Calm     89 % 0.0 mm 0.0 W/m2 CLR
05:51 2.7 °C 1.1 °C 1023.2 hPa Calm     89 % 0.0 mm 0.0 W/m2 CLR
05:56 2.7 °C 1.1 °C 1023.2 hPa Calm     89 % 0.0 mm 0.0 W/m2 CLR
06:01 2.7 °C 1.1 °C 1023.2 hPa Calm     89 % 0.0 mm 0.0 W/m2 CLR
06:06 2.7 °C 1.1 °C 1023.2 hPa Calm     89 % 0.0 mm 0.0 W/m2 CLR
06:11 2.7 °C 1.1 °C 1023.2 hPa Calm     89 % 0.0 mm 0.0 W/m2 CLR
06:16 2.6 °C 1.0 °C 1023.2 hPa Calm     89 % 0.0 mm 0.0 W/m2 CLR
06:21 2.5 °C 0.9 °C 1023.2 hPa Calm     89 % 0.0 mm 0.0 W/m2 CLR
06:26 2.4 °C 0.8 °C 1023.6 hPa Calm     89 % 0.0 mm 0.0 W/m2 CLR
06:31 2.4 °C 0.9 °C 1023.6 hPa Calm     90 % 0.0 mm 0.0 W/m2 CLR
06:36 2.4 °C 0.8 °C 1023.6 hPa Calm     89 % 0.0 mm 0.0 W/m2 CLR
06:41 2.3 °C 0.7 °C 1023.6 hPa Calm     89 % 0.0 mm 0.0 W/m2 CLR
06:46 2.2 °C 0.6 °C 1023.9 hPa Calm     89 % 0.0 mm 0.0 W/m2 CLR
06:51 2.2 °C 0.7 °C 1023.9 hPa Calm     90 % 0.0 mm 0.0 W/m2 CLR
06:56 2.2 °C 0.8 °C 1023.9 hPa Calm     90 % 0.0 mm 0.0 W/m2 CLR
07:01 2.2 °C 0.8 °C 1023.9 hPa Calm     90 % 0.0 mm 0.0 W/m2 OVC
07:06 2.2 °C 0.7 °C 1023.9 hPa Calm     90 % 0.0 mm 5.0 W/m2 OVC
07:11 2.2 °C 0.7 °C 1024.3 hPa Calm     90 % 0.0 mm 9.0 W/m2 BKN
07:16 2.2 °C 0.7 °C 1024.3 hPa Calm     90 % 0.0 mm 12.0 W/m2 BKN
07:21 2.2 °C 0.7 °C 1024.3 hPa Calm     90 % 0.0 mm 16.0 W/m2 BKN
07:26 2.3 °C 0.8 °C 1024.3 hPa Calm     90 % 0.0 mm 19.0 W/m2 BKN
07:31 2.4 °C 1.1 °C 1024.6 hPa Calm     91 % 0.0 mm 23.0 W/m2 BKN
07:36 2.6 °C 1.3 °C 1024.6 hPa Calm     91 % 0.0 mm 28.0 W/m2 BKN
07:41 2.8 °C 1.4 °C 1024.6 hPa Calm     91 % 0.0 mm 42.0 W/m2 BKN
07:46 2.9 °C 1.4 °C 1024.6 hPa Calm     90 % 0.0 mm 47.0 W/m2 SCT
07:51 3.2 °C 1.7 °C 1024.9 hPa Calm     90 % 0.0 mm 70.0 W/m2 FEW
07:56 3.4 °C 1.9 °C 1024.6 hPa Calm     90 % 0.0 mm 84.0 W/m2 FEW
08:01 3.7 °C 2.2 °C 1024.6 hPa Calm     90 % 0.0 mm 97.0 W/m2 CLR
08:06 4.0 °C 2.3 °C 1024.6 hPa Calm     89 % 0.0 mm 111.0 W/m2 CLR
08:11 4.3 °C 2.6 °C 1024.6 hPa Calm     89 % 0.0 mm 130.0 W/m2 CLR
08:16 4.7 °C 2.9 °C 1024.6 hPa Calm     88 % 0.0 mm 146.0 W/m2 CLR
08:21 5.1 °C 3.1 °C 1024.3 hPa Calm     87 % 0.0 mm 162.0 W/m2 CLR
08:26 5.4 °C 3.3 °C 1024.6 hPa Calm     86 % 0.0 mm 179.0 W/m2 CLR
08:31 5.9 °C 3.6 °C 1024.6 hPa Calm     85 % 0.0 mm 197.0 W/m2 CLR
08:36 6.3 °C 3.6 °C 1024.3 hPa Calm     83 % 0.0 mm 216.0 W/m2 CLR
08:41 6.7 °C 4.1 °C 1024.3 hPa Calm     83 % 0.0 mm 227.0 W/m2 CLR
08:46 7.2 °C 4.0 °C 1024.3 hPa Calm     80 % 0.0 mm 234.0 W/m2 CLR
08:51 7.6 °C 3.8 °C 1024.3 hPa Calm     77 % 0.0 mm 258.0 W/m2 CLR
08:56 8.1 °C 4.3 °C 1024.3 hPa Calm     77 % 0.0 mm 232.0 W/m2 CLR
09:01 8.6 °C 4.4 °C 1024.3 hPa Calm     75 % 0.0 mm 281.0 W/m2 CLR
09:06 9.1 °C 4.7 °C 1024.3 hPa Calm     74 % 0.0 mm 306.0 W/m2 CLR
09:11 9.7 °C 5.1 °C 1024.3 hPa Calm     73 % 0.0 mm 322.0 W/m2 CLR
09:16 10.3 °C 5.1 °C 1024.3 hPa Calm     70 % 0.0 mm 338.0 W/m2 CLR
09:21 10.7 °C 5.4 °C 1024.3 hPa Calm     70 % 0.0 mm 352.0 W/m2 CLR
09:26 11.2 °C 5.7 °C 1024.3 hPa Calm     69 % 0.0 mm 367.0 W/m2 CLR
09:31 11.7 °C 5.7 °C 1024.3 hPa Calm     67 % 0.0 mm 381.0 W/m2 CLR
09:36 12.1 °C 5.4 °C 1023.9 hPa Calm     64 % 0.0 mm 397.0 W/m2 CLR
09:41 12.4 °C 6.7 °C 1023.9 hPa Calm     68 % 0.0 mm 413.0 W/m2 CLR
09:46 12.9 °C 6.7 °C 1023.9 hPa Calm     66 % 0.0 mm 431.0 W/m2 CLR
09:51 13.4 °C 7.2 °C 1023.9 hPa WNW 13.0 km/h 13.0 km/h 66 % 0.0 mm 443.0 W/m2 CLR
09:56 13.7 °C 7.2 °C 1023.9 hPa West 13.0 km/h 13.0 km/h 65 % 0.0 mm 457.0 W/m2 CLR
10:01 13.8 °C 7.6 °C 1023.6 hPa NW 4.8 km/h 4.8 km/h 66 % 0.0 mm 471.0 W/m2 CLR
10:06 14.1 °C 7.6 °C 1023.6 hPa NW 7.4 km/h 7.4 km/h 65 % 0.0 mm 485.0 W/m2 CLR
10:11 14.2 °C 7.5 °C 1023.6 hPa WNW 7.4 km/h 7.4 km/h 64 % 0.0 mm 497.0 W/m2 CLR
10:16 14.4 °C 7.4 °C 1023.6 hPa West 16.7 km/h 16.7 km/h 63 % 0.0 mm 510.0 W/m2 CLR
10:21 14.5 °C 7.8 °C 1023.6 hPa WNW 12.9 km/h 12.9 km/h 64 % 0.0 mm 522.0 W/m2 CLR
10:26 14.7 °C 7.5 °C 1023.6 hPa NW 11.3 km/h 11.3 km/h 62 % 0.0 mm 538.0 W/m2 CLR
10:31 14.8 °C 7.8 °C 1023.6 hPa NW 16.7 km/h 16.7 km/h 63 % 0.0 mm 548.0 W/m2 CLR
10:36 14.7 °C 7.7 °C 1023.6 hPa NW 13.0 km/h 13.0 km/h 63 % 0.0 mm 559.0 W/m2 CLR
10:39 14.8 °C 8.1 °C 1023.6 hPa NW 17.7 km/h 17.7 km/h 64 % 0.0 mm 566.0 W/m2 CLR
10:44 14.7 °C 7.5 °C 1023.6 hPa NNW 14.8 km/h 14.8 km/h 62 % 0.0 mm 575.0 W/m2 CLR
10:49 14.6 °C 7.4 °C 1023.6 hPa NW 18.5 km/h 18.5 km/h 62 % 0.0 mm 587.0 W/m2 CLR
10:54 14.5 °C 7.3 °C 1023.6 hPa WNW 11.1 km/h 11.1 km/h 62 % 0.0 mm 594.0 W/m2 CLR
10:59 14.6 °C 7.7 °C 1023.6 hPa NW 9.7 km/h 9.7 km/h 63 % 0.0 mm 610.0 W/m2 CLR
11:04 14.8 °C 7.6 °C 1023.6 hPa NW 14.8 km/h 14.8 km/h 62 % 0.0 mm 622.0 W/m2 CLR
11:09 14.8 °C 7.8 °C 1023.6 hPa WNW 9.3 km/h 9.3 km/h 63 % 0.0 mm 631.0 W/m2 CLR
11:14 15.0 °C 7.6 °C 1023.2 hPa NW 7.4 km/h 7.4 km/h 61 % 0.0 mm 642.0 W/m2 CLR
11:20 15.3 °C 7.8 °C 1023.2 hPa NW 11.1 km/h 11.1 km/h 61 % 0.0 mm 649.0 W/m2 CLR
11:25 15.4 °C 8.4 °C 1023.2 hPa NW 9.7 km/h 9.7 km/h 63 % 0.0 mm 659.0 W/m2 CLR
11:30 15.4 °C 7.7 °C 1023.2 hPa North 9.3 km/h 9.3 km/h 60 % 0.0 mm 666.0 W/m2 CLR
11:35 15.6 °C 8.1 °C 1022.9 hPa Calm     61 % 0.0 mm 675.0 W/m2 CLR
11:40 16.2 °C 8.4 °C 1022.9 hPa Calm     60 % 0.0 mm 684.0 W/m2 CLR
11:45 16.6 °C 8.5 °C 1022.6 hPa NNW 3.7 km/h   59 % 0.0 mm 691.0 W/m2 CLR
11:50 16.7 °C 8.1 °C 1022.6 hPa NW 5.6 km/h 5.6 km/h 57 % 0.0 mm 696.0 W/m2 CLR
11:55 16.6 °C 8.6 °C 1022.6 hPa Calm     59 % 0.0 mm 698.0 W/m2 CLR
12:00 16.8 °C 8.0 °C 1022.6 hPa Calm     56 % 0.0 mm 708.0 W/m2 CLR
12:05 16.9 °C 7.5 °C 1022.6 hPa SW 8.0 km/h 8.0 km/h 54 % 0.0 mm 715.0 W/m2 CLR
12:10 16.9 °C 7.6 °C 1022.6 hPa Calm     54 % 0.0 mm 721.0 W/m2 CLR
12:15 17.2 °C 7.8 °C 1022.2 hPa Calm     54 % 0.0 mm 729.0 W/m2 CLR
12:20 17.4 °C 7.8 °C 1022.2 hPa Calm     53 % 0.0 mm 733.0 W/m2 CLR
12:25 17.8 °C 8.1 °C 1022.2 hPa Calm     53 % 0.0 mm 737.0 W/m2 CLR
12:30 17.9 °C 7.9 °C 1022.2 hPa WNW 7.4 km/h 7.4 km/h 52 % 0.0 mm 740.0 W/m2 CLR
12:35 18.1 °C 8.3 °C 1021.9 hPa NW 7.4 km/h 7.4 km/h 53 % 0.0 mm 742.0 W/m2 CLR
12:40 18.4 °C 8.1 °C 1021.9 hPa WNW 13.0 km/h 13.0 km/h 51 % 0.0 mm 742.0 W/m2 CLR
12:45 18.6 °C 8.0 °C 1021.9 hPa WNW 7.4 km/h   50 % 0.0 mm 749.0 W/m2 CLR
12:50 18.7 °C 8.9 °C 1021.9 hPa NNW 13.0 km/h 13.0 km/h 53 % 0.0 mm 751.0 W/m2 CLR
12:55 18.8 °C 8.1 °C 1021.9 hPa WSW 5.6 km/h 5.6 km/h 50 % 0.0 mm 749.0 W/m2 CLR
13:00 18.9 °C 8.2 °C 1021.9 hPa NNW 7.4 km/h 7.4 km/h 50 % 0.0 mm 749.0 W/m2 CLR
13:05 19.1 °C 8.1 °C 1021.6 hPa NNE 1.9 km/h 1.9 km/h 49 % 0.0 mm 752.0 W/m2 CLR
13:10 19.3 °C 7.7 °C 1021.6 hPa Calm     47 % 0.0 mm 758.0 W/m2 CLR
13:15 19.5 °C 7.6 °C 1021.6 hPa NW 3.7 km/h   46 % 0.0 mm 756.0 W/m2 CLR
13:20 19.5 °C 7.9 °C 1021.6 hPa NW 3.7 km/h   47 % 0.0 mm 751.0 W/m2 CLR
13:25 19.7 °C 8.7 °C 1021.6 hPa NW 11.3 km/h 11.3 km/h 49 % 0.0 mm 751.0 W/m2 CLR
13:30 19.7 °C 8.7 °C 1021.6 hPa Calm     49 % 0.0 mm 752.0 W/m2 CLR
13:35 20.0 °C 8.0 °C 1021.2 hPa SW 11.3 km/h 11.3 km/h 46 % 0.0 mm 754.0 W/m2 CLR
13:40 20.3 °C 8.3 °C 1021.2 hPa West 9.7 km/h 9.7 km/h 46 % 0.0 mm 745.0 W/m2 CLR
13:45 20.4 °C 8.1 °C 1021.2 hPa Calm     45 % 0.0 mm 745.0 W/m2 CLR
13:50 20.5 °C 8.5 °C 1020.9 hPa North 11.1 km/h 11.1 km/h 46 % 0.0 mm 744.0 W/m2 CLR
13:55 20.3 °C 7.3 °C 1020.9 hPa Calm     43 % 0.0 mm 747.0 W/m2 CLR
14:00 20.4 °C 7.8 °C 1020.9 hPa Calm     44 % 0.0 mm 754.0 W/m2 CLR
14:05 20.4 °C 7.7 °C 1020.9 hPa North 5.6 km/h 5.6 km/h 44 % 0.0 mm 759.0 W/m2 CLR
14:10 20.4 °C 7.7 °C 1020.9 hPa WNW 11.1 km/h 11.1 km/h 44 % 0.0 mm 561.0 W/m2 CLR
14:15 20.3 °C 7.3 °C 1020.9 hPa West 7.4 km/h   43 % 0.0 mm 381.0 W/m2 CLR
14:16 20.3 °C 7.3 °C 1020.9 hPa West 7.4 km/h   43 % 0.0 mm 381.0 W/m2 CLR
14:21 20.6 °C 8.3 °C 1020.5 hPa North 11.1 km/h 11.1 km/h 45 % 0.0 mm 754.0 W/m2 CLR
14:26 20.6 °C 7.9 °C 1020.5 hPa Calm     44 % 0.0 mm 717.0 W/m2 CLR
14:31 20.9 °C 7.5 °C 1020.5 hPa NE 7.4 km/h 7.4 km/h 42 % 0.0 mm 708.0 W/m2 CLR
14:36 21.2 °C 9.1 °C 1020.5 hPa NW 12.9 km/h 12.9 km/h 46 % 0.0 mm 696.0 W/m2 CLR
14:41 21.1 °C 7.3 °C 1020.5 hPa WNW 11.1 km/h 11.1 km/h 41 % 0.0 mm 693.0 W/m2 CLR
14:46 20.9 °C 8.6 °C 1020.5 hPa North 14.8 km/h 14.8 km/h 45 % 0.0 mm 682.0 W/m2 CLR
14:51 20.7 °C 8.3 °C 1020.2 hPa North 5.6 km/h 5.6 km/h 45 % 0.0 mm 664.0 W/m2 CLR
14:56 20.8 °C 9.4 °C 1020.2 hPa WNW 5.6 km/h 5.6 km/h 48 % 0.0 mm 663.0 W/m2 CLR
15:01 21.1 °C 9.0 °C 1020.2 hPa NNW 9.7 km/h 9.7 km/h 46 % 0.0 mm 661.0 W/m2 CLR
15:06 20.8 °C 8.7 °C 1020.2 hPa NW 9.3 km/h   46 % 0.0 mm 649.0 W/m2 CLR
15:11 20.9 °C 8.8 °C 1019.9 hPa Calm     46 % 0.0 mm 633.0 W/m2 CLR
15:16 21.2 °C 8.4 °C 1019.9 hPa WSW 5.6 km/h 5.6 km/h 44 % 0.0 mm 628.0 W/m2 CLR
15:21 21.3 °C 8.2 °C 1019.9 hPa North 1.9 km/h   43 % 0.0 mm 605.0 W/m2 CLR
15:26 21.4 °C 8.6 °C 1019.9 hPa NW 5.6 km/h 5.6 km/h 44 % 0.0 mm 592.0 W/m2 CLR
15:31 21.3 °C 8.2 °C 1019.9 hPa North 6.4 km/h 6.4 km/h 43 % 0.0 mm 598.0 W/m2 CLR
15:36 21.4 °C 8.6 °C 1019.9 hPa North 11.3 km/h 11.3 km/h 44 % 0.0 mm 591.0 W/m2 CLR
15:41 21.4 °C 8.3 °C 1019.9 hPa NNW 9.3 km/h 9.3 km/h 43 % 0.0 mm 580.0 W/m2 CLR
15:46 21.6 °C 8.8 °C 1019.9 hPa NNW 9.3 km/h 9.3 km/h 44 % 0.0 mm 568.0 W/m2 CLR
15:51 21.7 °C 8.2 °C 1019.5 hPa North 16.7 km/h 16.7 km/h 42 % 0.0 mm 555.0 W/m2 CLR
15:56 21.7 °C 8.6 °C 1019.5 hPa North 9.3 km/h 9.3 km/h 43 % 0.0 mm 540.0 W/m2 CLR
16:01 21.7 °C 7.8 °C 1019.5 hPa WNW 9.7 km/h 9.7 km/h 41 % 0.0 mm 527.0 W/m2 CLR
16:06 21.7 °C 7.9 °C 1019.5 hPa WNW 11.1 km/h 11.1 km/h 41 % 0.0 mm 515.0 W/m2 CLR
16:11 21.8 °C 7.6 °C 1019.2 hPa NNW 11.1 km/h 11.1 km/h 40 % 0.0 mm 504.0 W/m2 CLR
16:16 21.9 °C 8.7 °C 1019.2 hPa NW 11.3 km/h 11.3 km/h 43 % 0.0 mm 483.0 W/m2 CLR
16:21 21.8 °C 8.0 °C 1019.2 hPa North 11.3 km/h 11.3 km/h 41 % 0.0 mm 476.0 W/m2 CLR
16:26 21.8 °C 9.1 °C 1019.2 hPa Calm     44 % 0.0 mm 466.0 W/m2 CLR
16:31 22.1 °C 7.8 °C 1019.2 hPa NW 11.1 km/h 11.1 km/h 40 % 0.0 mm 452.0 W/m2 CLR
16:36 22.1 °C 8.9 °C 1019.2 hPa NW 5.6 km/h 5.6 km/h 43 % 0.0 mm 438.0 W/m2 CLR
16:41 22.2 °C 8.7 °C 1019.2 hPa NNW 9.7 km/h 9.7 km/h 42 % 0.0 mm 418.0 W/m2 CLR
16:46 22.1 °C 8.2 °C 1018.8 hPa Calm     41 % 0.0 mm 399.0 W/m2 CLR
16:51 22.1 °C 7.9 °C 1018.8 hPa WNW 13.0 km/h 13.0 km/h 40 % 0.0 mm 390.0 W/m2 CLR
16:56 22.0 °C 7.8 °C 1018.8 hPa WNW 11.1 km/h 11.1 km/h 40 % 0.0 mm 378.0 W/m2 CLR
17:01 22.1 °C 7.9 °C 1018.8 hPa WNW 4.8 km/h 4.8 km/h 40 % 0.0 mm 373.0 W/m2 CLR
17:06 22.3 °C 8.7 °C 1018.8 hPa NW 3.7 km/h 3.7 km/h 42 % 0.0 mm 360.0 W/m2 CLR
17:11 22.2 °C 7.6 °C 1018.8 hPa West 5.6 km/h 5.6 km/h 39 % 0.0 mm 315.0 W/m2 CLR
17:16 22.2 °C 7.9 °C 1018.8 hPa WNW 5.6 km/h 5.6 km/h 40 % 0.0 mm 285.0 W/m2 CLR
17:17 22.2 °C 7.9 °C 1018.8 hPa WNW 5.6 km/h 5.6 km/h 40 % 0.0 mm 292.0 W/m2 CLR
17:22 22.2 °C 8.3 °C 1018.8 hPa WNW 5.6 km/h 5.6 km/h 41 % 0.0 mm 264.0 W/m2 CLR
17:27 22.1 °C 8.6 °C 1018.8 hPa NW 3.7 km/h 3.7 km/h 42 % 0.0 mm 251.0 W/m2 CLR
17:32 21.9 °C 7.7 °C 1018.8 hPa NW 11.1 km/h 11.1 km/h 40 % 0.0 mm 223.0 W/m2 CLR
17:37 21.7 °C 8.9 °C 1018.5 hPa WNW 7.4 km/h 7.4 km/h 44 % 0.0 mm 221.0 W/m2 CLR
17:42 21.7 °C 8.2 °C 1018.5 hPa WNW 7.4 km/h 7.4 km/h 42 % 0.0 mm 213.0 W/m2 CLR
17:47 21.6 °C 8.5 °C 1018.8 hPa WNW 5.6 km/h   43 % 0.0 mm 181.0 W/m2 CLR
17:52 21.6 °C 9.2 °C 1018.8 hPa Calm   0.3 km/h 45 % 0.0 mm 155.0 W/m2 CLR
17:57 21.6 °C 8.8 °C 1018.8 hPa WNW 5.6 km/h   44 % 0.0 mm 127.0 W/m2 CLR
18:02 21.6 °C 8.1 °C 1018.8 hPa West 8.0 km/h 8.0 km/h 42 % 0.0 mm 121.0 W/m2 CLR
18:07 21.4 °C 8.7 °C 1018.8 hPa WNW 8.0 km/h 8.0 km/h 44 % 0.0 mm 105.0 W/m2 CLR
18:12 21.2 °C 7.4 °C 1018.8 hPa WNW 7.4 km/h 7.4 km/h 41 % 0.0 mm 93.0 W/m2 CLR
18:17 21.0 °C 7.6 °C 1018.8 hPa WNW 7.4 km/h 7.4 km/h 42 % 0.0 mm 93.0 W/m2 CLR
18:22 20.8 °C 7.8 °C 1018.8 hPa WNW 6.4 km/h 6.6 km/h 43 % 0.0 mm 83.0 W/m2 CLR
18:27 20.7 °C 8.0 °C 1018.8 hPa WNW 8.0 km/h 8.0 km/h 44 % 0.0 mm 72.0 W/m2 FEW
18:32 20.7 °C 7.7 °C 1018.8 hPa West 9.7 km/h 9.7 km/h 43 % 0.0 mm 62.0 W/m2 SCT
18:37 20.7 °C 8.0 °C 1018.8 hPa West 7.4 km/h 7.4 km/h 44 % 0.0 mm 46.0 W/m2 SCT
18:42 20.6 °C 8.2 °C 1018.8 hPa WNW 5.6 km/h 5.6 km/h 45 % 0.0 mm 37.0 W/m2 BKN
18:47 20.3 °C 7.7 °C 1018.8 hPa West 8.0 km/h 8.0 km/h 44 % 0.0 mm 26.0 W/m2 BKN
18:52 20.0 °C 7.7 °C 1018.8 hPa WNW 8.0 km/h 8.0 km/h 45 % 0.0 mm 19.0 W/m2 BKN
18:57 19.5 °C 8.2 °C 1019.2 hPa WNW 9.3 km/h 9.3 km/h 48 % 0.0 mm 14.0 W/m2 BKN
19:02 19.0 °C 8.3 °C 1019.2 hPa WNW 7.4 km/h 7.4 km/h 50 % 0.0 mm 9.0 W/m2 BKN
19:07 18.6 °C 8.3 °C 1019.2 hPa WNW 6.4 km/h 6.4 km/h 51 % 0.0 mm 5.0 W/m2 OVC
19:12 18.3 °C 8.0 °C 1019.2 hPa WNW 5.6 km/h 5.6 km/h 51 % 0.0 mm 0.0 W/m2 OVC
19:17 18.1 °C 8.3 °C 1019.2 hPa WNW 5.6 km/h 5.6 km/h 53 % 0.0 mm 0.0 W/m2 OVC
19:22 17.8 °C 8.1 °C 1019.2 hPa WNW 5.6 km/h 5.6 km/h 53 % 0.0 mm 0.0 W/m2 CLR
19:27 17.5 °C 8.3 °C 1019.2 hPa Calm     55 % 0.0 mm 0.0 W/m2 CLR
19:32 17.3 °C 8.2 °C 1019.2 hPa Calm     55 % 0.0 mm 0.0 W/m2 CLR
19:37 17.2 °C 8.4 °C 1019.2 hPa Calm     56 % 0.0 mm 0.0 W/m2 CLR
19:42 16.8 °C 8.3 °C 1019.2 hPa Calm     57 % 0.0 mm 0.0 W/m2 CLR
19:47 16.4 °C 8.4 °C 1019.2 hPa Calm     59 % 0.0 mm 0.0 W/m2 CLR
19:52 16.1 °C 8.6 °C 1019.2 hPa WSW 3.2 km/h 3.2 km/h 61 % 0.0 mm 0.0 W/m2 CLR
19:57 15.7 °C 8.4 °C 1019.2 hPa WSW 5.6 km/h 5.6 km/h 62 % 0.0 mm 0.0 W/m2 CLR
20:03 15.3 °C 8.6 °C 1019.2 hPa Calm     64 % 0.0 mm 0.0 W/m2 CLR
20:08 15.1 °C 8.3 °C 1019.2 hPa Calm     64 % 0.0 mm 0.0 W/m2 CLR
20:13 14.9 °C 8.6 °C 1019.2 hPa Calm     66 % 0.0 mm 0.0 W/m2 CLR
20:18 14.6 °C 8.6 °C 1019.2 hPa Calm     67 % 0.0 mm 0.0 W/m2 CLR
20:23 14.3 °C 8.3 °C 1019.5 hPa Calm     67 % 0.0 mm 0.0 W/m2 CLR
20:28 14.2 °C 8.3 °C 1019.5 hPa Calm     68 % 0.0 mm 0.0 W/m2 CLR
20:33 13.9 °C 8.3 °C 1019.5 hPa Calm     69 % 0.0 mm 0.0 W/m2 CLR
20:38 13.7 °C 8.3 °C 1019.5 hPa Calm     70 % 0.0 mm 0.0 W/m2 CLR
20:43 13.5 °C 8.3 °C 1019.5 hPa Calm     71 % 0.0 mm 0.0 W/m2 CLR
20:48 13.4 °C 8.2 °C 1019.5 hPa Calm     71 % 0.0 mm 0.0 W/m2 CLR
20:53 13.3 °C 8.3 °C 1019.5 hPa Calm     72 % 0.0 mm 0.0 W/m2 CLR
20:58 13.2 °C 8.2 °C 1019.9 hPa Calm     72 % 0.0 mm 0.0 W/m2 CLR
21:03 13.0 °C 8.1 °C 1019.9 hPa Calm     72 % 0.0 mm 0.0 W/m2 CLR
21:08 12.8 °C 8.1 °C 1019.9 hPa Calm     73 % 0.0 mm 0.0 W/m2 CLR
21:13 12.5 °C 8.0 °C 1019.9 hPa Calm     74 % 0.0 mm 0.0 W/m2 CLR
21:18 12.2 °C 7.9 °C 1019.9 hPa Calm     75 % 0.0 mm 0.0 W/m2 CLR
21:23 11.9 °C 7.8 °C 1020.2 hPa Calm     76 % 0.0 mm 0.0 W/m2 CLR
21:28 11.7 °C 7.8 °C 1020.2 hPa Calm     77 % 0.0 mm 0.0 W/m2 CLR
21:33 11.6 °C 7.7 °C 1020.2 hPa Calm     77 % 0.0 mm 0.0 W/m2 CLR
21:38 11.4 °C 7.7 °C 1020.2 hPa Calm     78 % 0.0 mm 0.0 W/m2 CLR
21:43 11.2 °C 7.5 °C 1020.5 hPa Calm     78 % 0.0 mm 0.0 W/m2 CLR
21:48 11.1 °C 7.6 °C 1020.5 hPa Calm     79 % 0.0 mm 0.0 W/m2 CLR
21:53 11.0 °C 7.5 °C 1020.5 hPa Calm     79 % 0.0 mm 0.0 W/m2 CLR
21:58 10.8 °C 7.3 °C 1020.5 hPa Calm     79 % 0.0 mm 0.0 W/m2 CLR
22:03 10.7 °C 7.3 °C 1020.5 hPa Calm     80 % 0.0 mm 0.0 W/m2 CLR
22:08 10.5 °C 7.2 °C 1020.5 hPa Calm     80 % 0.0 mm 0.0 W/m2 CLR
22:13 10.4 °C 7.3 °C 1020.5 hPa Calm     81 % 0.0 mm 0.0 W/m2 CLR
22:18 10.3 °C 7.2 °C 1020.5 hPa Calm     81 % 0.0 mm 0.0 W/m2 CLR
22:23 10.2 °C 7.1 °C 1020.5 hPa Calm     81 % 0.0 mm 0.0 W/m2 CLR
22:28 10.1 °C 7.0 °C 1020.5 hPa Calm     81 % 0.0 mm 0.0 W/m2 CLR
22:33 10.0 °C 6.9 °C 1020.9 hPa Calm     81 % 0.0 mm 0.0 W/m2 CLR
22:38 9.9 °C 6.8 °C 1020.9 hPa Calm     81 % 0.0 mm 0.0 W/m2 CLR
22:43 9.7 °C 6.8 °C 1020.9 hPa Calm     82 % 0.0 mm 0.0 W/m2 CLR
22:48 9.7 °C 6.7 °C 1020.9 hPa Calm     82 % 0.0 mm 0.0 W/m2 CLR
22:53 9.7 °C 6.6 °C 1020.9 hPa Calm     81 % 0.0 mm 0.0 W/m2 CLR
22:58 9.8 °C 6.7 °C 1020.9 hPa Calm     81 % 0.0 mm 0.0 W/m2 CLR
23:03 9.9 °C 6.4 °C 1020.9 hPa Calm     79 % 0.0 mm 0.0 W/m2 CLR
23:08 10.2 °C 6.3 °C 1020.9 hPa Calm     77 % 0.0 mm 0.0 W/m2 CLR
23:13 10.2 °C 6.4 °C 1020.9 hPa Calm     77 % 0.0 mm 0.0 W/m2 CLR
23:18 10.2 °C 6.4 °C 1020.9 hPa Calm     77 % 0.0 mm 0.0 W/m2 CLR
23:23 10.1 °C 6.1 °C 1020.9 hPa Calm     76 % 0.0 mm 0.0 W/m2 CLR
23:28 10.0 °C 5.9 °C 1020.9 hPa Calm     76 % 0.0 mm 0.0 W/m2 CLR
23:33 9.9 °C 5.7 °C 1020.9 hPa Calm     75 % 0.0 mm 0.0 W/m2 CLR
23:38 9.8 °C 5.6 °C 1020.9 hPa Calm     75 % 0.0 mm 0.0 W/m2 CLR
23:43 9.7 °C 5.5 °C 1021.2 hPa Calm     75 % 0.0 mm 0.0 W/m2 CLR
23:48 9.7 °C 5.4 °C 1021.2 hPa Calm     75 % 0.0 mm 0.0 W/m2 CLR
23:53 9.5 °C 5.3 °C 1021.2 hPa Calm     75 % 0.0 mm 0.0 W/m2 CLR
23:58 9.3 °C 5.3 °C 1021.2 hPa Calm     76 % 0.0 mm 0.0 W/m2 CLR
Lo Temps de Massalio
Compliments of Weather Underground - 1.25 mb